createdAt,value
2018-12-27T00:01:43.757Z,4.20
2018-12-27T00:04:15.022Z,4.16
2018-12-27T00:06:46.295Z,4.11
2018-12-27T00:09:17.067Z,4.16
2018-12-27T00:11:47.845Z,4.08
2018-12-27T00:14:18.787Z,3.94
2018-12-27T00:17:09.766Z,3.88
2018-12-27T00:19:41.142Z,3.95
2018-12-27T00:22:11.792Z,3.21
2018-12-27T00:24:43.021Z,3.53
2018-12-27T00:27:14.148Z,3.73
2018-12-27T00:29:44.998Z,4.04
2018-12-27T00:32:15.728Z,4.11
2018-12-27T00:34:46.927Z,3.98
2018-12-27T00:37:18.149Z,4.12
2018-12-27T00:39:49.180Z,3.79
2018-12-27T00:42:20.355Z,3.25
2018-12-27T00:44:51.187Z,2.30
2018-12-27T00:47:21.979Z,2.27
2018-12-27T00:49:53.028Z,2.90
2018-12-27T00:52:24.383Z,3.10
2018-12-27T00:54:55.207Z,2.76
2018-12-27T00:57:25.938Z,1.80
2018-12-27T00:59:57.029Z,1.37
2018-12-27T01:02:28.157Z,1.82
2018-12-27T01:04:59.036Z,1.11
2018-12-27T01:07:29.679Z,0.84
2018-12-27T01:10:00.867Z,1.27
2018-12-27T01:12:32.110Z,1.29
2018-12-27T01:15:03.208Z,1.61
2018-12-27T01:17:34.025Z,2.12
2018-12-27T01:20:05.578Z,2.36
2018-12-27T01:22:36.657Z,2.77
2018-12-27T01:25:07.389Z,2.64
2018-12-27T01:27:38.251Z,2.76
2018-12-27T01:30:09.046Z,2.55
2018-12-27T01:32:39.781Z,2.68
2018-12-27T01:35:10.836Z,3.02
2018-12-27T01:37:42.111Z,3.01
2018-12-27T01:40:12.918Z,2.97
2018-12-27T01:42:43.673Z,3.20
2018-12-27T01:45:14.700Z,3.28
2018-12-27T01:47:46.071Z,3.23
2018-12-27T01:50:16.576Z,3.22
2018-12-27T01:52:47.256Z,3.22
2018-12-27T01:55:18.273Z,3.44
2018-12-27T01:57:49.708Z,3.48
2018-12-27T02:00:20.667Z,3.69
2018-12-27T02:02:51.477Z,3.66
2018-12-27T02:05:22.269Z,2.47
2018-12-27T02:07:53.088Z,1.43
2018-12-27T02:10:23.988Z,3.45
2018-12-27T02:12:55.110Z,3.14
2018-12-27T02:15:25.828Z,3.17
2018-12-27T02:17:56.459Z,3.36
2018-12-27T02:20:27.852Z,2.94
2018-12-27T02:22:59.001Z,2.75
2018-12-27T02:25:30.168Z,2.80
2018-12-27T02:28:00.942Z,3.03
2018-12-27T02:30:31.686Z,2.66
2018-12-27T02:33:03.156Z,2.74
2018-12-27T02:35:34.050Z,3.18
2018-12-27T02:38:04.588Z,3.07
2018-12-27T02:40:35.371Z,3.27
2018-12-27T02:43:06.284Z,3.47
2018-12-27T02:45:37.453Z,2.97
2018-12-27T02:48:08.685Z,3.44
2018-12-27T02:50:39.415Z,3.68
2018-12-27T02:53:10.007Z,3.87
2018-12-27T02:55:41.292Z,3.74
2018-12-27T02:58:12.701Z,3.37
2018-12-27T03:00:43.477Z,3.52
2018-12-27T03:03:15.265Z,2.75
2018-12-27T03:05:46.284Z,2.93
2018-12-27T03:08:17.392Z,3.07
2018-12-27T03:10:48.322Z,1.97
2018-12-27T03:13:19.060Z,1.39
2018-12-27T03:15:50.251Z,2.32
2018-12-27T03:18:21.470Z,0.97
2018-12-27T03:20:52.525Z,0.62
2018-12-27T03:23:24.037Z,-0.01
2018-12-27T03:25:54.906Z,0.06
2018-12-27T03:28:25.604Z,1.02
2018-12-27T03:30:56.883Z,1.12
2018-12-27T03:33:28.112Z,1.48
2018-12-27T03:35:59.026Z,2.11
2018-12-27T03:38:29.452Z,1.89
2018-12-27T03:41:00.648Z,1.61
2018-12-27T03:43:31.872Z,1.41
2018-12-27T03:46:02.602Z,1.05
2018-12-27T03:48:33.311Z,1.85
2018-12-27T03:51:04.269Z,1.92
2018-12-27T03:53:35.194Z,2.11
2018-12-27T03:56:06.111Z,2.13
2018-12-27T03:58:36.556Z,2.42
2018-12-27T04:01:07.621Z,2.58
2018-12-27T04:03:39.047Z,2.74
2018-12-27T04:06:09.865Z,2.52
2018-12-27T04:08:40.414Z,2.79
2018-12-27T04:11:11.487Z,2.58
2018-12-27T04:13:42.605Z,2.12
2018-12-27T04:16:13.419Z,1.79
2018-12-27T04:18:44.034Z,1.94
2018-12-27T04:21:15.166Z,2.39
2018-12-27T04:23:47.000Z,2.64
2018-12-27T04:26:18.655Z,2.79
2018-12-27T04:28:49.302Z,2.93
2018-12-27T04:31:20.896Z,2.17
2018-12-27T04:33:52.414Z,2.39
2018-12-27T04:36:23.691Z,1.60
2018-12-27T04:38:54.284Z,1.63
2018-12-27T04:41:25.253Z,2.36
2018-12-27T04:43:56.552Z,1.56
2018-12-27T04:46:27.537Z,2.17
2018-12-27T04:48:58.881Z,2.36
2018-12-27T04:51:29.572Z,1.81
2018-12-27T04:53:59.907Z,1.20
2018-12-27T04:56:30.867Z,1.58
2018-12-27T04:59:01.890Z,2.08
2018-12-27T05:01:33.141Z,1.36
2018-12-27T05:04:03.654Z,1.12
2018-12-27T05:06:34.527Z,1.77
2018-12-27T05:09:07.575Z,1.77
2018-12-27T05:11:38.783Z,1.53
2018-12-27T05:14:09.460Z,1.40
2018-12-27T05:16:40.552Z,1.57
2018-12-27T05:19:11.683Z,1.01
2018-12-27T05:21:42.542Z,1.23
2018-12-27T05:24:13.339Z,1.35
2018-12-27T05:26:44.160Z,1.39
2018-12-27T05:29:14.662Z,1.29
2018-12-27T05:31:45.542Z,1.40
2018-12-27T05:34:16.487Z,1.36
2018-12-27T05:36:47.324Z,1.48
2018-12-27T05:39:18.041Z,1.09
2018-12-27T05:41:49.103Z,-0.06
2018-12-27T05:44:20.228Z,-0.30
2018-12-27T05:46:51.094Z,0.27
2018-12-27T05:49:21.770Z,0.38
2018-12-27T05:51:52.410Z,0.39
2018-12-27T05:54:23.353Z,0.72
2018-12-27T05:56:54.119Z,1.01
2018-12-27T05:59:24.610Z,0.61
2018-12-27T06:01:55.368Z,0.84
2018-12-27T06:04:33.560Z,0.82
2018-12-27T06:06:59.089Z,0.95
2018-12-27T06:09:30.335Z,1.06
2018-12-27T06:12:01.342Z,0.71
2018-12-27T06:14:31.855Z,0.93
2018-12-27T06:17:02.957Z,1.13
2018-12-27T06:19:34.077Z,1.21
2018-12-27T06:22:05.497Z,1.17
2018-12-27T06:24:36.138Z,1.41
2018-12-27T06:27:06.888Z,1.01
2018-12-27T06:29:37.983Z,1.65
2018-12-27T06:32:08.684Z,1.71
2018-12-27T06:34:59.141Z,1.91
2018-12-27T06:37:30.595Z,2.04
2018-12-27T06:40:01.640Z,2.56
2018-12-27T06:42:32.791Z,2.83
2018-12-27T06:45:03.539Z,3.25
2018-12-27T06:47:34.127Z,3.55
2018-12-27T06:50:06.732Z,3.54
2018-12-27T06:52:37.400Z,3.56
2018-12-27T06:55:08.496Z,3.88
2018-12-27T06:57:39.471Z,4.26
2018-12-27T07:00:10.262Z,4.52
2018-12-27T07:03:00.971Z,4.99
2018-12-27T07:05:31.582Z,5.14
2018-12-27T07:08:02.655Z,5.33
2018-12-27T07:10:33.264Z,5.61
2018-12-27T07:13:04.345Z,5.71
2018-12-27T07:15:35.668Z,5.52
2018-12-27T07:18:08.064Z,5.96
2018-12-27T07:20:38.658Z,6.26
2018-12-27T07:23:09.634Z,6.01
2018-12-27T07:25:40.621Z,6.00
2018-12-27T07:28:12.715Z,5.86
2018-12-27T07:30:43.969Z,7.03
2018-12-27T07:33:15.073Z,6.61
2018-12-27T07:35:45.606Z,7.29
2018-12-27T07:38:19.642Z,7.36
2018-12-27T07:40:50.570Z,7.59
2018-12-27T07:43:21.394Z,7.39
2018-12-27T07:45:51.570Z,7.61
2018-12-27T07:48:21.903Z,8.11
2018-12-27T07:50:52.381Z,6.70
2018-12-27T07:53:23.296Z,5.83
2018-12-27T07:55:53.439Z,6.70
2018-12-27T07:58:23.644Z,6.57
2018-12-27T08:00:53.888Z,6.99
2018-12-27T08:03:24.098Z,7.50
2018-12-27T08:05:54.468Z,8.17
2018-12-27T08:08:24.677Z,7.93
2018-12-27T08:10:54.931Z,8.11
2018-12-27T08:13:25.181Z,8.36
2018-12-27T08:15:55.461Z,8.67
2018-12-27T08:18:26.957Z,10.09
2018-12-27T08:20:57.697Z,10.76
2018-12-27T08:23:28.748Z,10.79
2018-12-27T08:26:00.207Z,10.46
2018-12-27T08:28:30.770Z,10.90
2018-12-27T08:31:01.328Z,10.83
2018-12-27T08:33:32.209Z,10.66
2018-12-27T08:36:03.149Z,10.72
2018-12-27T08:38:33.645Z,10.63
2018-12-27T08:41:04.367Z,10.35
2018-12-27T08:43:35.226Z,11.47
2018-12-27T08:46:05.829Z,13.15
2018-12-27T08:48:37.123Z,13.74
2018-12-27T08:51:08.215Z,12.26
2018-12-27T08:53:38.768Z,11.35
2018-12-27T09:02:10.301Z,13.12
2018-12-27T09:11:12.119Z,13.83
2018-12-27T09:14:14.651Z,12.89
2018-12-27T09:22:35.361Z,13.68
2018-12-27T09:25:25.003Z,14.00
2018-12-27T09:28:24.952Z,14.41
2018-12-27T09:39:50.595Z,16.80
2018-12-27T09:42:20.957Z,16.30
2018-12-27T09:44:51.111Z,16.09
2018-12-27T09:47:21.323Z,14.69
2018-12-27T09:49:51.594Z,14.47
2018-12-27T09:52:21.848Z,14.86
2018-12-27T09:54:52.052Z,14.25
2018-12-27T09:57:22.272Z,14.36
2018-12-27T09:59:52.554Z,14.30
2018-12-27T10:02:22.762Z,13.63
2018-12-27T10:04:53.051Z,13.45
2018-12-27T10:07:43.825Z,14.10
2018-12-27T10:31:28.746Z,16.44
2018-12-27T10:36:47.611Z,16.83
2018-12-27T10:39:17.798Z,16.63
2018-12-27T10:41:48.070Z,17.02
2018-12-27T10:44:57.165Z,17.60
2018-12-27T10:47:42.302Z,17.73
2018-12-27T10:50:51.568Z,17.86
2018-12-27T10:53:40.976Z,18.74
2018-12-27T10:56:25.356Z,18.52
2018-12-27T11:10:09.296Z,17.11
2018-12-27T11:12:39.701Z,17.89
2018-12-27T11:15:10.048Z,17.68
2018-12-27T11:17:40.308Z,18.21
2018-12-27T11:20:10.482Z,17.74
2018-12-27T11:22:59.616Z,16.41
2018-12-27T11:25:29.899Z,17.17
2018-12-27T11:28:20.317Z,18.08
2018-12-27T11:34:17.701Z,18.22
2018-12-27T11:43:13.503Z,19.62
2018-12-27T11:48:37.430Z,19.43
2018-12-27T11:51:08.759Z,19.19
2018-12-27T11:53:39.710Z,19.66
2018-12-27T11:56:10.071Z,21.02
2018-12-27T11:58:40.236Z,19.26
2018-12-27T12:01:10.427Z,19.77
2018-12-27T12:03:40.711Z,18.87
2018-12-27T12:06:29.799Z,19.71
2018-12-27T12:09:00.184Z,19.36
2018-12-27T12:11:30.425Z,18.39
2018-12-27T12:14:00.686Z,18.34
2018-12-27T12:16:30.961Z,18.79
2018-12-27T12:19:01.150Z,19.26
2018-12-27T12:21:31.339Z,19.23
2018-12-27T12:24:01.618Z,20.03
2018-12-27T12:26:31.888Z,20.39
2018-12-27T12:29:02.088Z,20.47
2018-12-27T12:31:32.343Z,18.72
2018-12-27T12:34:02.621Z,18.22
2018-12-27T12:36:32.804Z,18.32
2018-12-27T12:39:04.162Z,18.93
2018-12-27T12:41:34.447Z,19.28
2018-12-27T12:44:04.638Z,19.36
2018-12-27T12:46:34.883Z,18.37
2018-12-27T12:49:05.194Z,17.69
2018-12-27T12:51:35.518Z,18.00
2018-12-27T12:54:05.730Z,19.31
2018-12-27T12:56:35.898Z,19.80
2018-12-27T12:59:06.209Z,17.69
2018-12-27T13:01:36.504Z,17.96
2018-12-27T13:04:06.716Z,16.87
2018-12-27T13:06:36.902Z,17.25
2018-12-27T13:12:08.005Z,19.17
2018-12-27T13:17:32.494Z,18.33
2018-12-27T13:20:02.947Z,18.04
2018-12-27T13:22:33.341Z,17.40
2018-12-27T13:25:03.537Z,16.61
2018-12-27T13:27:33.725Z,17.84
2018-12-27T13:30:03.997Z,17.86
2018-12-27T13:32:34.234Z,19.01
2018-12-27T13:35:04.428Z,19.49
2018-12-27T13:37:34.601Z,19.52
2018-12-27T13:43:04.265Z,18.47
2018-12-27T13:45:34.541Z,18.46
2018-12-27T13:48:04.807Z,18.03
2018-12-27T13:50:35.070Z,16.09
2018-12-27T13:53:05.422Z,15.87
2018-12-27T14:01:55.598Z,13.95
2018-12-27T14:07:22.602Z,11.95
2018-12-27T14:09:52.969Z,11.14
2018-12-27T14:12:23.260Z,10.07
2018-12-27T14:14:53.436Z,9.98
2018-12-27T14:17:23.605Z,9.39
2018-12-27T14:19:53.897Z,9.26
2018-12-27T14:22:24.148Z,9.07
2018-12-27T14:24:57.894Z,9.05
2018-12-27T14:27:26.324Z,9.10
2018-12-27T14:29:56.626Z,8.32
2018-12-27T14:32:26.935Z,9.07
2018-12-27T14:34:57.086Z,9.83
2018-12-27T14:37:27.251Z,10.13
2018-12-27T14:39:57.496Z,9.84
2018-12-27T14:42:27.656Z,10.18
2018-12-27T14:44:57.904Z,9.95
2018-12-27T14:47:28.170Z,9.46
2018-12-27T14:49:58.346Z,8.74
2018-12-27T14:52:28.543Z,8.37
2018-12-27T14:54:58.810Z,8.53
2018-12-27T14:57:29.055Z,8.61
2018-12-27T14:59:59.258Z,8.55
2018-12-27T15:02:29.738Z,9.02
2018-12-27T15:05:39.214Z,7.81
2018-12-27T15:08:28.550Z,7.48
2018-12-27T15:23:34.318Z,8.24
2018-12-27T15:26:29.634Z,8.11
2018-12-27T15:32:12.119Z,8.60
2018-12-27T15:34:42.274Z,7.61
2018-12-27T15:37:12.766Z,7.01
2018-12-27T15:40:03.161Z,7.38
2018-12-27T16:09:00.796Z,5.88
2018-12-27T16:11:47.895Z,5.37
2018-12-27T16:20:09.908Z,5.09
2018-12-27T16:22:56.741Z,4.92
2018-12-27T16:28:46.843Z,5.54
2018-12-27T16:31:37.323Z,5.94
2018-12-27T16:45:58.415Z,5.75
2018-12-27T16:51:46.401Z,5.75
2018-12-27T16:57:30.100Z,6.14
2018-12-27T17:06:01.687Z,5.95
2018-12-27T17:11:36.479Z,5.96
2018-12-27T17:23:21.627Z,5.73
2018-12-27T17:34:57.571Z,5.59
2018-12-27T17:40:46.039Z,5.48
2018-12-27T18:34:19.204Z,5.14
2018-12-27T18:37:07.570Z,5.20
2018-12-27T18:39:52.021Z,5.16
2018-12-27T19:09:19.455Z,5.27
2018-12-27T19:12:12.723Z,5.34
2018-12-27T19:14:45.266Z,5.38
2018-12-27T19:23:34.477Z,4.78
2018-12-27T19:26:29.599Z,4.53
2018-12-27T19:41:02.030Z,4.26
2018-12-27T19:53:10.838Z,4.19
2018-12-27T20:11:09.393Z,4.06
2018-12-27T20:26:24.847Z,3.93
2018-12-27T20:38:16.390Z,3.79
2018-12-27T20:41:11.531Z,3.75
2018-12-27T20:49:59.999Z,3.69
2018-12-27T20:56:03.401Z,3.91
2018-12-27T21:01:38.007Z,3.76
2018-12-27T21:04:22.269Z,3.75
2018-12-27T21:15:59.326Z,3.65
2018-12-27T21:18:30.162Z,3.65
2018-12-27T21:21:01.047Z,3.68
2018-12-27T21:23:31.714Z,3.65
2018-12-27T21:26:02.151Z,3.61
2018-12-27T21:31:28.301Z,3.67
2018-12-27T21:33:59.594Z,3.42
2018-12-27T21:36:30.085Z,3.22
2018-12-27T21:39:01.447Z,2.83
2018-12-27T21:41:32.074Z,2.56
2018-12-27T21:44:02.597Z,3.01
2018-12-27T21:46:53.292Z,3.10
2018-12-27T21:49:24.419Z,3.23
2018-12-27T21:51:55.058Z,3.33
2018-12-27T21:54:25.588Z,3.23
2018-12-27T21:56:56.799Z,3.21
2018-12-27T21:59:27.800Z,3.23
2018-12-27T22:01:58.591Z,3.18
2018-12-27T22:04:29.045Z,3.20
2018-12-27T22:07:00.428Z,3.15
2018-12-27T22:09:31.400Z,3.24
2018-12-27T22:12:01.937Z,3.27
2018-12-27T22:14:32.377Z,3.23
2018-12-27T22:17:03.439Z,3.11
2018-12-27T22:19:34.067Z,3.17
2018-12-27T22:22:05.008Z,3.01
2018-12-27T22:24:36.352Z,2.54
2018-12-27T22:27:06.982Z,2.71
2018-12-27T22:29:37.601Z,2.82
2018-12-27T22:32:08.877Z,3.00
2018-12-27T22:34:40.201Z,3.04
2018-12-27T22:37:10.816Z,3.05
2018-12-27T22:39:41.460Z,3.09
2018-12-27T22:45:11.180Z,3.09
2018-12-27T22:47:41.859Z,3.39
2018-12-27T22:50:12.634Z,3.48
2018-12-27T22:52:42.993Z,3.66
2018-12-27T22:55:14.561Z,3.70
2018-12-27T22:57:45.033Z,3.69
2018-12-27T23:00:27.925Z,3.71
2018-12-27T23:02:59.617Z,3.75
2018-12-27T23:05:30.252Z,3.67
2018-12-27T23:08:00.510Z,3.68
2018-12-27T23:10:30.773Z,3.38
2018-12-27T23:13:01.335Z,3.56
2018-12-27T23:15:32.071Z,3.50
2018-12-27T23:18:03.258Z,3.47
2018-12-27T23:20:34.181Z,3.36
2018-12-27T23:23:04.987Z,3.52
2018-12-27T23:25:35.613Z,3.53
2018-12-27T23:28:05.896Z,3.51
2018-12-27T23:30:36.265Z,3.56
2018-12-27T23:33:06.793Z,3.47
2018-12-27T23:35:37.219Z,3.57
2018-12-27T23:38:08.190Z,3.55
2018-12-27T23:40:38.689Z,3.45
2018-12-27T23:43:09.539Z,3.42
2018-12-27T23:45:40.766Z,3.39
2018-12-27T23:48:11.295Z,3.38
2018-12-27T23:50:41.832Z,3.53
2018-12-27T23:53:12.138Z,3.28
2018-12-27T23:55:42.391Z,2.84
2018-12-27T23:58:12.692Z,2.49
